Time;durP1;ratioP1;P1;durP2;ratioP2;P2;SDS_P1;SDS_P2;PMS_P1;PMS_P2;Temp;Humidity;BMP_temperature;BMP_pressure;BME280_temperature;BME280_humidity;BME280_pressure;Samples;Min_cycle;Max_cycle;Signal;HPM_P1;HPM_P2
2022/07/07 00:00:41;;;;;;;;;;;21.70;73.40;;;;;;4994049;28;793;-71
2022/07/07 00:03:06;;;;;;;;;;;21.70;73.50;;;;;;4976403;28;1216;-71
2022/07/07 00:05:32;;;;;;;;;;;21.70;73.50;;;;;;4993614;28;805;-71
2022/07/07 00:07:57;;;;;;;;;;;21.70;73.50;;;;;;4976009;28;1907;-71
2022/07/07 00:10:23;;;;;;;;;;;21.70;73.50;;;;;;4993784;28;848;-71
2022/07/07 00:12:49;;;;;;;;;;;21.70;73.50;;;;;;4993714;28;1190;-71
2022/07/07 00:15:14;;;;;;;;;;;21.70;73.50;;;;;;4993655;28;1187;-71
2022/07/07 00:17:39;;;;;;;;;;;21.70;73.50;;;;;;4976402;28;933;-71
2022/07/07 00:20:05;;;;;;;;;;;21.70;73.50;;;;;;5008245;28;1108;-71
2022/07/07 00:22:30;;;;;;;;;;;21.70;73.50;;;;;;5012829;28;1509;-71
2022/07/07 00:24:56;;;;;;;;;;;21.60;73.40;;;;;;5010373;28;1128;-71
2022/07/07 00:27:21;;;;;;;;;;;21.60;73.50;;;;;;4993494;28;1955;-71
2022/07/07 00:29:47;;;;;;;;;;;21.60;73.40;;;;;;4993524;28;784;-71
2022/07/07 00:32:12;;;;;;;;;;;21.60;73.40;;;;;;4976078;28;836;-70
2022/07/07 00:34:38;;;;;;;;;;;21.60;73.50;;;;;;4993163;28;1192;-70
2022/07/07 00:37:03;;;;;;;;;;;21.70;73.50;;;;;;4993439;28;1062;-71
2022/07/07 00:39:29;;;;;;;;;;;21.70;73.50;;;;;;4976041;28;856;-71
2022/07/07 00:41:54;;;;;;;;;;;21.60;73.40;;;;;;4976117;28;962;-71
2022/07/07 00:44:20;;;;;;;;;;;21.70;73.50;;;;;;4975578;28;1289;-71
2022/07/07 00:46:46;;;;;;;;;;;21.60;73.50;;;;;;4976090;28;697;-71
2022/07/07 00:49:12;;;;;;;;;;;21.60;73.40;;;;;;4975889;28;1903;-71
2022/07/07 00:51:37;;;;;;;;;;;21.60;73.50;;;;;;4993097;28;938;-70
2022/07/07 00:54:03;;;;;;;;;;;21.70;73.50;;;;;;4989311;28;2203;-70
2022/07/07 00:56:28;;;;;;;;;;;21.70;73.50;;;;;;4992994;28;1188;-71
2022/07/07 00:58:54;;;;;;;;;;;21.60;73.50;;;;;;4993450;28;871;-71
2022/07/07 01:01:19;;;;;;;;;;;21.60;73.50;;;;;;4993157;28;895;-70
2022/07/07 01:03:45;;;;;;;;;;;21.60;73.50;;;;;;5005850;23;3672;-66
2022/07/07 01:06:10;;;;;;;;;;;21.60;73.50;;;;;;5090577;28;842;-66
2022/07/07 01:08:36;;;;;;;;;;;21.60;73.50;;;;;;5091094;28;1909;-66
2022/07/07 01:11:01;;;;;;;;;;;21.70;73.50;;;;;;5091612;28;828;-66
2022/07/07 01:13:26;;;;;;;;;;;21.60;73.50;;;;;;5092420;28;1217;-66
2022/07/07 01:15:52;;;;;;;;;;;21.70;73.50;;;;;;5092705;28;1184;-66
2022/07/07 01:18:17;;;;;;;;;;;21.60;73.50;;;;;;5096052;28;1161;-66
2022/07/07 01:20:45;;;;;;;;;;;21.60;73.50;;;;;;5096323;28;878;-66
2022/07/07 01:23:11;;;;;;;;;;;21.60;73.50;;;;;;5094878;28;1630;-66
2022/07/07 01:25:36;;;;;;;;;;;21.60;73.50;;;;;;5096202;28;1209;-66
2022/07/07 01:28:02;;;;;;;;;;;21.60;73.50;;;;;;5096181;28;1902;-66
2022/07/07 01:30:27;;;;;;;;;;;21.60;73.50;;;;;;5096207;28;1040;-66
2022/07/07 01:32:53;;;;;;;;;;;21.60;73.50;;;;;;5096445;28;796;-66
2022/07/07 01:35:18;;;;;;;;;;;21.60;73.50;;;;;;5095674;28;1141;-66
2022/07/07 01:37:44;;;;;;;;;;;21.60;73.60;;;;;;5095920;28;885;-66
2022/07/07 01:40:09;;;;;;;;;;;21.60;73.60;;;;;;5096115;28;822;-66
2022/07/07 01:42:35;;;;;;;;;;;21.60;73.50;;;;;;5095981;28;798;-66
2022/07/07 01:45:00;;;;;;;;;;;21.60;73.60;;;;;;5095926;28;1177;-66
2022/07/07 01:47:25;;;;;;;;;;;21.60;73.60;;;;;;5095753;28;1890;-66
2022/07/07 01:49:51;;;;;;;;;;;21.60;73.50;;;;;;5096117;28;801;-66
2022/07/07 01:52:16;;;;;;;;;;;21.60;73.50;;;;;;5095924;28;831;-66
2022/07/07 01:54:42;;;;;;;;;;;21.60;73.50;;;;;;5095375;28;1278;-66
2022/07/07 01:57:07;;;;;;;;;;;21.60;73.50;;;;;;5095731;28;1017;-66
2022/07/07 01:59:33;;;;;;;;;;;21.60;73.50;;;;;;5093486;28;2305;-67
2022/07/07 02:01:59;;;;;;;;;;;21.60;73.50;;;;;;5089481;28;1137;-67
2022/07/07 02:04:24;;;;;;;;;;;21.60;73.60;;;;;;5093594;28;1290;-67
2022/07/07 02:06:49;;;;;;;;;;;21.60;73.60;;;;;;5092939;28;1879;-67
2022/07/07 02:09:15;;;;;;;;;;;21.60;73.60;;;;;;5088768;28;1973;-66
2022/07/07 02:11:40;;;;;;;;;;;21.60;73.60;;;;;;5087067;28;1163;-66
2022/07/07 02:14:06;;;;;;;;;;;21.60;73.60;;;;;;5084846;28;1373;-66
2022/07/07 02:16:33;;;;;;;;;;;21.60;73.60;;;;;;5086308;28;1219;-67
2022/07/07 02:19:00;;;;;;;;;;;21.60;73.60;;;;;;5083688;28;1190;-66
2022/07/07 02:21:26;;;;;;;;;;;21.60;73.50;;;;;;5094229;28;2065;-67
2022/07/07 02:23:52;;;;;;;;;;;21.60;73.50;;;;;;5094867;28;1451;-67
2022/07/07 02:26:17;;;;;;;;;;;21.60;73.60;;;;;;5095345;28;1611;-66
2022/07/07 02:28:43;;;;;;;;;;;21.60;73.60;;;;;;5093633;28;1968;-66
2022/07/07 02:31:08;;;;;;;;;;;21.60;73.50;;;;;;5095312;28;850;-67
2022/07/07 02:33:34;;;;;;;;;;;21.60;73.60;;;;;;5094862;28;1562;-67
2022/07/07 02:35:59;;;;;;;;;;;21.60;73.60;;;;;;5094723;28;1609;-67
2022/07/07 02:38:25;;;;;;;;;;;21.60;73.60;;;;;;5093885;28;1079;-67
2022/07/07 02:40:50;;;;;;;;;;;21.60;73.60;;;;;;5094967;28;845;-67
2022/07/07 02:43:16;;;;;;;;;;;21.60;73.60;;;;;;5093648;28;1197;-67
2022/07/07 02:45:42;;;;;;;;;;;21.60;73.60;;;;;;5094595;28;1439;-67
2022/07/07 02:48:08;;;;;;;;;;;21.60;73.60;;;;;;5093614;28;2058;-67
2022/07/07 02:50:33;;;;;;;;;;;21.60;73.60;;;;;;5094662;28;795;-67
2022/07/07 02:52:58;;;;;;;;;;;21.60;73.50;;;;;;5094892;28;949;-67
2022/07/07 02:55:24;;;;;;;;;;;21.60;73.50;;;;;;5094542;28;1177;-67
2022/07/07 02:57:50;;;;;;;;;;;21.60;73.60;;;;;;5094803;28;858;-67
2022/07/07 03:00:16;;;;;;;;;;;21.60;73.50;;;;;;5094791;28;826;-67
2022/07/07 03:02:41;;;;;;;;;;;21.60;73.60;;;;;;5094738;28;968;-67
2022/07/07 03:05:07;;;;;;;;;;;21.60;73.60;;;;;;5094014;28;1208;-67
2022/07/07 03:07:33;;;;;;;;;;;21.60;73.50;;;;;;5094542;28;1969;-67
2022/07/07 03:09:58;;;;;;;;;;;21.60;73.50;;;;;;5094637;28;910;-67
2022/07/07 03:12:23;;;;;;;;;;;21.60;73.60;;;;;;5093368;28;754;-67
2022/07/07 03:14:49;;;;;;;;;;;21.60;73.60;;;;;;5093989;28;1418;-66
2022/07/07 03:17:14;;;;;;;;;;;21.60;73.60;;;;;;5093086;28;898;-67
2022/07/07 03:19:40;;;;;;;;;;;21.60;73.50;;;;;;5092929;28;1448;-67
2022/07/07 03:22:05;;;;;;;;;;;21.60;73.60;;;;;;5094343;28;886;-67
2022/07/07 03:24:31;;;;;;;;;;;21.60;73.50;;;;;;5093838;28;1277;-67
2022/07/07 03:26:58;;;;;;;;;;;21.60;73.60;;;;;;5094154;28;1495;-67
2022/07/07 03:29:24;;;;;;;;;;;21.60;73.60;;;;;;5093072;28;1910;-67
2022/07/07 03:31:50;;;;;;;;;;;21.60;73.60;;;;;;5094171;28;969;-67
2022/07/07 03:34:15;;;;;;;;;;;21.60;73.60;;;;;;5093582;28;1200;-67
2022/07/07 03:36:40;;;;;;;;;;;21.60;73.60;;;;;;5093969;28;945;-67
2022/07/07 03:39:06;;;;;;;;;;;21.60;73.60;;;;;;5075457;28;880;-68
2022/07/07 03:41:31;;;;;;;;;;;21.60;73.60;;;;;;5093991;28;894;-68
2022/07/07 03:43:57;;;;;;;;;;;21.60;73.60;;;;;;5093784;28;1291;-68
2022/07/07 03:46:22;;;;;;;;;;;21.60;73.60;;;;;;5076067;28;1296;-68
2022/07/07 03:48:48;;;;;;;;;;;21.60;73.60;;;;;;5092467;28;1969;-67
2022/07/07 03:51:13;;;;;;;;;;;21.60;73.60;;;;;;5093808;28;802;-68
2022/07/07 03:53:39;;;;;;;;;;;21.60;73.50;;;;;;5092340;28;1291;-68
2022/07/07 03:56:04;;;;;;;;;;;21.60;73.60;;;;;;5093603;28;1064;-68
2022/07/07 03:58:30;;;;;;;;;;;21.60;73.50;;;;;;5093672;28;1036;-68
2022/07/07 04:00:55;;;;;;;;;;;21.60;73.60;;;;;;5093633;28;803;-67
2022/07/07 04:03:21;;;;;;;;;;;21.60;73.60;;;;;;5093402;28;1204;-68
2022/07/07 04:05:46;;;;;;;;;;;21.60;73.60;;;;;;5093291;28;1080;-67
2022/07/07 04:08:11;;;;;;;;;;;21.60;73.60;;;;;;5093524;28;1910;-68
2022/07/07 04:10:37;;;;;;;;;;;21.60;73.60;;;;;;5093609;28;887;-66
2022/07/07 04:13:02;;;;;;;;;;;21.60;73.60;;;;;;5093533;28;926;-66
2022/07/07 04:15:28;;;;;;;;;;;21.60;73.60;;;;;;5093125;28;1500;-66
2022/07/07 04:17:53;;;;;;;;;;;21.60;73.60;;;;;;5093140;28;811;-67
2022/07/07 04:20:19;;;;;;;;;;;21.60;73.60;;;;;;5093388;28;1553;-67
2022/07/07 04:22:44;;;;;;;;;;;21.60;73.60;;;;;;5093405;28;791;-68
2022/07/07 04:25:10;;;;;;;;;;;21.60;73.60;;;;;;5092955;28;1409;-68
2022/07/07 04:27:35;;;;;;;;;;;21.60;74.30;;;;;;5093298;28;1901;-68
2022/07/07 04:30:00;;;;;;;;;;;21.60;73.60;;;;;;5093317;28;792;-68
2022/07/07 04:32:26;;;;;;;;;;;21.60;73.60;;;;;;5093073;28;928;-68
2022/07/07 04:34:52;;;;;;;;;;;21.60;73.60;;;;;;5091755;28;1318;-68
2022/07/07 04:37:17;;;;;;;;;;;21.60;73.60;;;;;;5109394;28;969;-68
2022/07/07 04:39:42;;;;;;;;;;;21.60;73.60;;;;;;5093244;28;1060;-67
2022/07/07 04:42:08;;;;;;;;;;;21.60;73.60;;;;;;5093244;28;1013;-67
2022/07/07 04:44:34;;;;;;;;;;;21.60;74.30;;;;;;5092005;28;1275;-67
2022/07/07 04:46:59;;;;;;;;;;;21.60;73.60;;;;;;5093105;28;830;-67
2022/07/07 04:49:25;;;;;;;;;;;21.60;73.60;;;;;;5091932;28;1906;-67
2022/07/07 04:51:50;;;;;;;;;;;21.60;73.60;;;;;;5096512;28;812;-67
2022/07/07 04:54:16;;;;;;;;;;;21.60;73.60;;;;;;5097080;28;1195;-67
2022/07/07 04:56:41;;;;;;;;;;;21.60;73.60;;;;;;5096370;28;798;-67
2022/07/07 04:59:07;;;;;;;;;;;21.60;73.60;;;;;;5097337;28;1035;-67
2022/07/07 05:01:32;;;;;;;;;;;21.60;73.60;;;;;;5097215;28;1041;-67
2022/07/07 05:03:57;;;;;;;;;;;21.60;73.60;;;;;;5095631;28;1211;-67
2022/07/07 05:06:23;;;;;;;;;;;21.60;73.60;;;;;;5113160;28;1959;-67
2022/07/07 05:08:48;;;;;;;;;;;21.60;73.60;;;;;;5097430;28;1914;-67
2022/07/07 05:11:14;;;;;;;;;;;21.60;73.60;;;;;;5097381;28;870;-67
2022/07/07 05:13:39;;;;;;;;;;;21.60;73.60;;;;;;5095737;28;1201;-68
2022/07/07 05:16:05;;;;;;;;;;;21.60;73.60;;;;;;5095899;28;1434;-67
2022/07/07 05:18:31;;;;;;;;;;;21.60;73.60;;;;;;5097279;28;1528;-67
2022/07/07 05:20:57;;;;;;;;;;;21.60;73.60;;;;;;5095822;28;924;-66
2022/07/07 05:23:25;;;;;;;;;;;21.60;73.60;;;;;;5112463;28;1320;-66
2022/07/07 05:25:53;;;;;;;;;;;21.60;73.60;;;;;;5096692;28;1376;-68
2022/07/07 05:28:19;;;;;;;;;;;21.60;73.60;;;;;;5095523;28;1906;-68
2022/07/07 05:30:44;;;;;;;;;;;21.60;73.60;;;;;;5095261;28;904;-68
2022/07/07 05:33:10;;;;;;;;;;;21.60;73.80;;;;;;5096420;28;1286;-67
2022/07/07 05:35:36;;;;;;;;;;;21.60;73.60;;;;;;5096515;28;1328;-67
2022/07/07 05:38:02;;;;;;;;;;;21.60;73.60;;;;;;5095131;28;906;-68
2022/07/07 05:40:28;;;;;;;;;;;21.60;73.60;;;;;;5096502;28;843;-68
2022/07/07 05:42:53;;;;;;;;;;;21.60;73.60;;;;;;5096449;28;834;-68
2022/07/07 05:45:19;;;;;;;;;;;21.60;73.60;;;;;;5094786;28;1269;-67
2022/07/07 05:47:44;;;;;;;;;;;21.60;73.60;;;;;;5094922;28;1898;-67
2022/07/07 05:50:10;;;;;;;;;;;21.60;73.60;;;;;;5096510;28;779;-67
2022/07/07 05:52:35;;;;;;;;;;;21.60;74.30;;;;;;5094889;28;875;-69
2022/07/07 05:55:00;;;;;;;;;;;21.60;73.60;;;;;;5095759;28;1318;-69
2022/07/07 05:57:26;;;;;;;;;;;21.60;73.60;;;;;;5093579;28;2318;-69
2022/07/07 05:59:51;;;;;;;;;;;21.60;73.60;;;;;;5111311;28;1220;-68
2022/07/07 06:02:17;;;;;;;;;;;21.60;73.60;;;;;;5094720;28;1293;-70
2022/07/07 06:04:42;;;;;;;;;;;21.60;73.60;;;;;;5094138;28;1265;-69
2022/07/07 06:07:08;;;;;;;;;;;21.60;73.60;;;;;;5094658;28;894;-68
2022/07/07 06:09:33;;;;;;;;;;;21.60;73.60;;;;;;5094484;28;1965;-68
2022/07/07 06:11:59;;;;;;;;;;;21.60;73.60;;;;;;5094421;28;1076;-68
2022/07/07 06:14:24;;;;;;;;;;;21.60;73.60;;;;;;5095217;28;1215;-68
2022/07/07 06:16:50;;;;;;;;;;;21.60;73.60;;;;;;5095144;28;1161;-70
2022/07/07 06:19:15;;;;;;;;;;;21.60;73.60;;;;;;5095499;28;1113;-70
2022/07/07 06:21:41;;;;;;;;;;;21.60;73.60;;;;;;5095400;28;771;-70
2022/07/07 06:24:06;;;;;;;;;;;21.60;73.60;;;;;;5093765;28;1278;-70
2022/07/07 06:26:32;;;;;;;;;;;21.60;73.60;;;;;;5097149;28;1182;-71
2022/07/07 06:28:57;;;;;;;;;;;21.60;73.60;;;;;;5095334;28;1955;-71
2022/07/07 06:31:23;;;;;;;;;;;21.60;73.60;;;;;;5094911;28;1009;-70
2022/07/07 06:33:48;;;;;;;;;;;21.60;73.60;;;;;;5076675;28;1316;-68
2022/07/07 06:36:14;;;;;;;;;;;21.60;73.60;;;;;;5095068;28;894;-68
2022/07/07 06:38:39;;;;;;;;;;;21.60;73.60;;;;;;5094935;28;949;-69
2022/07/07 06:41:05;;;;;;;;;;;21.60;73.60;;;;;;5095017;28;1052;-69
2022/07/07 06:43:30;;;;;;;;;;;21.60;73.60;;;;;;5094843;28;1159;-67
2022/07/07 06:45:55;;;;;;;;;;;21.60;73.60;;;;;;5094537;28;791;-67
2022/07/07 06:48:21;;;;;;;;;;;21.60;73.60;;;;;;5094779;28;1941;-67
2022/07/07 06:50:46;;;;;;;;;;;21.60;73.60;;;;;;5095055;28;883;-68
2022/07/07 06:53:12;;;;;;;;;;;21.60;73.60;;;;;;5094618;28;1216;-69
2022/07/07 06:55:37;;;;;;;;;;;21.60;73.60;;;;;;5093222;28;924;-69
2022/07/07 06:58:03;;;;;;;;;;;21.60;73.60;;;;;;5094578;28;1017;-67
2022/07/07 07:00:28;;;;;;;;;;;21.60;73.60;;;;;;5093029;28;1228;-68
2022/07/07 07:02:54;;;;;;;;;;;21.60;73.60;;;;;;5094493;28;1071;-68
2022/07/07 07:05:20;;;;;;;;;;;21.60;73.60;;;;;;5086178;22;2069;-71
2022/07/07 07:07:45;;;;;;;;;;;21.60;73.60;;;;;;5013192;28;1973;-71
2022/07/07 07:10:10;;;;;;;;;;;21.60;74.40;;;;;;5014476;28;881;-71
2022/07/07 07:12:36;;;;;;;;;;;21.60;73.60;;;;;;5014510;28;888;-71
2022/07/07 07:15:01;;;;;;;;;;;21.60;73.60;;;;;;5011569;28;1268;-71
2022/07/07 07:17:27;;;;;;;;;;;21.60;73.60;;;;;;5014554;28;950;-71
2022/07/07 07:19:52;;;;;;;;;;;21.60;73.60;;;;;;5014237;28;1147;-70
2022/07/07 07:22:18;;;;;;;;;;;21.60;73.60;;;;;;5029501;28;1227;-70
2022/07/07 07:24:43;;;;;;;;;;;21.60;73.60;;;;;;5014000;28;1308;-71
2022/07/07 07:27:09;;;;;;;;;;;21.60;73.60;;;;;;5014193;28;874;-70
2022/07/07 07:29:34;;;;;;;;;;;21.60;73.60;;;;;;5013972;28;1961;-70
2022/07/07 07:31:59;;;;;;;;;;;21.60;73.60;;;;;;5012854;28;812;-70
2022/07/07 07:34:25;;;;;;;;;;;21.60;73.60;;;;;;5013746;28;1176;-71
2022/07/07 07:36:50;;;;;;;;;;;21.60;73.60;;;;;;5014215;28;1014;-71
2022/07/07 07:39:16;;;;;;;;;;;21.60;73.60;;;;;;5014039;28;1057;-70
2022/07/07 07:41:43;;;;;;;;;;;21.60;73.60;;;;;;5014065;28;791;-70
2022/07/07 07:44:09;;;;;;;;;;;21.60;73.60;;;;;;5013526;28;867;-70
2022/07/07 07:46:34;;;;;;;;;;;21.60;73.60;;;;;;5012696;28;1256;-70
2022/07/07 07:49:05;;;;;;;;;;;21.60;73.60;;;;;;5013844;28;1967;-71
2022/07/07 07:51:31;;;;;;;;;;;21.60;73.60;;;;;;5013987;28;872;-71
2022/07/07 07:53:57;;;;;;;;;;;21.60;73.60;;;;;;5012277;28;804;-70
2022/07/07 07:56:22;;;;;;;;;;;21.60;73.60;;;;;;5013655;28;1260;-71
2022/07/07 07:58:47;;;;;;;;;;;21.60;73.60;;;;;;5013443;28;1013;-70
2022/07/07 08:01:13;;;;;;;;;;;21.60;73.60;;;;;;5013560;28;1171;-70
2022/07/07 08:03:38;;;;;;;;;;;21.60;73.60;;;;;;5013557;28;1021;-70
2022/07/07 08:06:04;;;;;;;;;;;21.60;73.60;;;;;;5013276;28;1190;-71
2022/07/07 08:08:29;;;;;;;;;;;21.60;73.60;;;;;;5013534;28;1961;-71
2022/07/07 08:10:55;;;;;;;;;;;21.60;73.60;;;;;;5013651;28;823;-71
2022/07/07 08:13:21;;;;;;;;;;;21.60;73.60;;;;;;5013800;28;882;-71
2022/07/07 08:15:46;;;;;;;;;;;21.60;73.60;;;;;;5013249;28;1210;-71
2022/07/07 08:18:12;;;;;;;;;;;21.60;73.60;;;;;;5012293;28;995;-71
2022/07/07 08:20:37;;;;;;;;;;;21.60;73.60;;;;;;5013424;28;1139;-71
2022/07/07 08:23:03;;;;;;;;;;;21.60;73.60;;;;;;5013496;28;894;-71
2022/07/07 08:25:28;;;;;;;;;;;21.60;73.60;;;;;;5013122;28;1291;-71
2022/07/07 08:27:53;;;;;;;;;;;21.60;73.60;;;;;;5013546;28;1932;-71
2022/07/07 08:30:19;;;;;;;;;;;21.60;73.60;;;;;;5012714;28;1917;-71
2022/07/07 08:32:45;;;;;;;;;;;21.60;73.60;;;;;;5012794;28;2189;-70
2022/07/07 08:35:11;;;;;;;;;;;21.60;73.60;;;;;;5011758;28;1291;-70
2022/07/07 08:37:37;;;;;;;;;;;21.50;73.60;;;;;;5013036;28;1257;-70
2022/07/07 08:40:03;;;;;;;;;;;21.60;73.60;;;;;;5013149;28;1075;-69
2022/07/07 08:42:28;;;;;;;;;;;21.60;73.60;;;;;;5012956;28;903;-70
2022/07/07 08:44:54;;;;;;;;;;;21.60;73.60;;;;;;5012858;28;1231;-70
2022/07/07 08:47:19;;;;;;;;;;;21.60;73.60;;;;;;5012861;28;1907;-70
2022/07/07 08:49:45;;;;;;;;;;;21.60;73.60;;;;;;5013070;28;1076;-71
2022/07/07 08:52:10;;;;;;;;;;;21.60;73.60;;;;;;5012987;28;835;-70
2022/07/07 08:54:36;;;;;;;;;;;21.60;73.60;;;;;;5012883;28;1309;-69
2022/07/07 08:57:01;;;;;;;;;;;21.60;73.60;;;;;;5011766;28;963;-69
2022/07/07 08:59:27;;;;;;;;;;;21.60;73.60;;;;;;5011845;28;811;-69
2022/07/07 09:01:56;;;;;;;;;;;21.60;73.60;;;;;;5013087;28;858;-71
2022/07/07 09:04:22;;;;;;;;;;;21.60;73.60;;;;;;5011423;28;1283;-68
2022/07/07 09:06:51;;;;;;;;;;;21.60;73.60;;;;;;5013240;28;845;-69
2022/07/07 09:09:19;;;;;;;;;;;21.60;73.60;;;;;;5012873;28;1902;-68
2022/07/07 09:11:44;;;;;;;;;;;21.60;73.60;;;;;;5011890;28;1254;-68
2022/07/07 09:14:10;;;;;;;;;;;21.60;73.60;;;;;;5012781;28;915;-68
2022/07/07 09:16:36;;;;;;;;;;;21.60;73.60;;;;;;5011622;28;1321;-68
2022/07/07 09:19:02;;;;;;;;;;;21.60;74.40;;;;;;5011765;28;1131;-69
2022/07/07 09:21:28;;;;;;;;;;;21.60;73.60;;;;;;5011837;28;944;-70
2022/07/07 09:23:54;;;;;;;;;;;21.60;73.60;;;;;;5011438;28;807;-70
2022/07/07 09:26:53;;;;;;;;;;;21.60;73.60;;;;;;5011533;28;1254;-71
2022/07/07 09:29:19;;;;;;;;;;;21.60;73.60;;;;;;5000632;28;1882;-71
2022/07/07 09:31:54;;;;;;;;;;;21.60;73.70;;;;;;5012896;28;788;-71
2022/07/07 09:34:20;;;;;;;;;;;21.60;73.60;;;;;;5012327;28;1209;-71
2022/07/07 09:39:43;;;;;;;;;;;21.60;73.70;;;;;;5015264;28;681;-71
2022/07/07 09:42:24;;;;;;;;;;;21.60;73.60;;;;;;5016047;28;799;-71
2022/07/07 09:44:54;;;;;;;;;;;21.60;73.70;;;;;;5015895;28;1279;-70
2022/07/07 09:47:20;;;;;;;;;;;21.50;73.60;;;;;;5015840;28;1902;-70
2022/07/07 09:49:56;;;;;;;;;;;21.60;73.70;;;;;;5014978;28;856;-69
2022/07/07 09:52:22;;;;;;;;;;;21.60;73.60;;;;;;5014828;28;1089;-69
2022/07/07 09:54:51;;;;;;;;;;;21.60;73.60;;;;;;5014562;28;1223;-69
2022/07/07 09:57:16;;;;;;;;;;;21.60;73.60;;;;;;5014897;28;895;-69
2022/07/07 09:59:42;;;;;;;;;;;21.50;73.60;;;;;;5015636;28;854;-69
2022/07/07 10:02:23;;;;;;;;;;;21.50;73.60;;;;;;5014591;28;826;-69
2022/07/07 10:04:49;;;;;;;;;;;21.60;73.60;;;;;;5015375;28;1198;-69
2022/07/07 10:07:18;;;;;;;;;;;21.60;73.70;;;;;;5015758;28;931;-69
2022/07/07 10:09:44;;;;;;;;;;;21.60;73.70;;;;;;5015888;28;897;-69
2022/07/07 10:12:10;;;;;;;;;;;21.50;73.60;;;;;;5014280;28;883;-69
2022/07/07 10:14:35;;;;;;;;;;;21.60;73.70;;;;;;5014110;28;1195;-70
2022/07/07 10:17:02;;;;;;;;;;;21.60;73.70;;;;;;5014371;28;1190;-69
2022/07/07 10:19:27;;;;;;;;;;;21.50;73.60;;;;;;5014216;28;1107;-69
2022/07/07 10:21:56;;;;;;;;;;;21.60;73.60;;;;;;5015475;28;840;-70
2022/07/07 10:24:22;;;;;;;;;;;21.60;73.60;;;;;;5013806;28;1287;-70
2022/07/07 10:26:49;;;;;;;;;;;21.60;74.40;;;;;;5014233;28;1155;-70
2022/07/07 10:29:15;;;;;;;;;;;21.60;73.70;;;;;;5015357;28;1899;-70
2022/07/07 10:31:40;;;;;;;;;;;21.60;73.70;;;;;;5014157;28;966;-70
2022/07/07 10:34:11;;;;;;;;;;;21.60;73.70;;;;;;5030199;28;1526;-70
2022/07/07 10:36:46;;;;;;;;;;;21.60;73.70;;;;;;5014279;28;1232;-70
2022/07/07 10:39:12;;;;;;;;;;;21.60;73.70;;;;;;5015076;28;741;-70
2022/07/07 10:41:37;;;;;;;;;;;21.60;73.60;;;;;;5015151;28;839;-70
2022/07/07 10:44:04;;;;;;;;;;;21.60;73.70;;;;;;5013610;28;903;-71
2022/07/07 10:46:30;;;;;;;;;;;21.60;73.70;;;;;;5014939;28;1297;-69
2022/07/07 10:49:04;;;;;;;;;;;21.60;73.70;;;;;;5014726;28;1965;-69
2022/07/07 10:51:31;;;;;;;;;;;21.60;73.70;;;;;;5013696;28;1005;-70
2022/07/07 10:53:57;;;;;;;;;;;21.60;73.70;;;;;;5013271;28;1081;-70
2022/07/07 10:56:23;;;;;;;;;;;21.60;73.70;;;;;;5014467;28;1267;-70
2022/07/07 10:58:51;;;;;;;;;;;21.60;73.70;;;;;;5001705;28;1180;-71
2022/07/07 11:01:17;;;;;;;;;;;21.50;73.60;;;;;;5004686;28;1287;-70
2022/07/07 11:03:42;;;;;;;;;;;21.60;73.70;;;;;;5003395;28;1318;-72
2022/07/07 11:06:08;;;;;;;;;;;21.60;73.70;;;;;;5008138;28;1382;-70
2022/07/07 11:08:36;;;;;;;;;;;21.60;73.70;;;;;;5011715;28;1906;-70
2022/07/07 11:11:03;;;;;;;;;;;21.60;73.70;;;;;;5014742;28;785;-70
2022/07/07 11:13:38;;;;;;;;;;;21.60;73.70;;;;;;5013114;28;1223;-70
2022/07/07 11:16:13;;;;;;;;;;;21.60;73.70;;;;;;5014166;28;1191;-70
2022/07/07 11:18:39;;;;;;;;;;;21.60;73.70;;;;;;5014073;28;1107;-70
2022/07/07 11:21:05;;;;;;;;;;;21.60;73.70;;;;;;5014176;28;951;-70
2022/07/07 11:23:48;;;;;;;;;;;21.60;73.70;;;;;;5013168;28;804;-70
2022/07/07 11:26:15;;;;;;;;;;;21.60;73.70;;;;;;5014196;28;1248;-70
2022/07/07 11:28:40;;;;;;;;;;;21.60;73.70;;;;;;5013878;28;1898;-70
2022/07/07 11:31:06;;;;;;;;;;;21.60;73.70;;;;;;5012918;28;974;-70
2022/07/07 11:33:32;;;;;;;;;;;21.60;73.70;;;;;;5013753;28;844;-70
2022/07/07 11:35:57;;;;;;;;;;;21.60;73.70;;;;;;5012680;28;1680;-70
2022/07/07 11:38:27;;;;;;;;;;;21.60;73.70;;;;;;5013868;28;856;-70
2022/07/07 11:40:53;;;;;;;;;;;21.60;73.70;;;;;;5012860;28;815;-70
2022/07/07 11:43:21;;;;;;;;;;;21.60;73.70;;;;;;5013998;28;864;-70
2022/07/07 11:45:47;;;;;;;;;;;21.60;73.70;;;;;;5012309;28;1223;-70
2022/07/07 11:48:12;;;;;;;;;;;21.60;73.70;;;;;;5012519;28;1894;-70
2022/07/07 11:50:38;;;;;;;;;;;21.60;73.70;;;;;;5013806;28;989;-70
2022/07/07 11:53:04;;;;;;;;;;;21.60;73.70;;;;;;5013623;28;1025;-71
2022/07/07 11:55:30;;;;;;;;;;;21.60;73.70;;;;;;5012276;28;1208;-71
2022/07/07 11:57:56;;;;;;;;;;;21.60;73.70;;;;;;5013739;28;1073;-71
2022/07/07 12:00:23;;;;;;;;;;;21.60;73.70;;;;;;5011802;28;816;-71
2022/07/07 12:02:53;;;;;;;;;;;21.60;73.70;;;;;;5013511;28;823;-71
2022/07/07 12:05:19;;;;;;;;;;;21.60;73.70;;;;;;5012537;28;1292;-71
2022/07/07 12:07:57;;;;;;;;;;;21.60;73.70;;;;;;5013551;28;1906;-71
2022/07/07 12:10:29;;;;;;;;;;;21.60;73.70;;;;;;5013428;28;812;-70
2022/07/07 12:12:58;;;;;;;;;;;21.60;73.70;;;;;;5012063;28;895;-69
2022/07/07 12:15:27;;;;;;;;;;;21.60;73.70;;;;;;5011835;28;1300;-69
2022/07/07 12:17:52;;;;;;;;;;;21.60;73.70;;;;;;5013247;28;1083;-70
2022/07/07 12:20:18;;;;;;;;;;;21.60;73.70;;;;;;5013421;28;1155;-71
2022/07/07 12:22:46;;;;;;;;;;;21.60;73.70;;;;;;5013043;28;784;-70
2022/07/07 12:25:11;;;;;;;;;;;21.60;73.70;;;;;;5011751;28;1392;-70
2022/07/07 12:27:55;;;;;;;;;;;21.60;73.70;;;;;;5012989;28;1910;-71
2022/07/07 12:30:20;;;;;;;;;;;21.60;73.70;;;;;;5013321;28;844;-71
2022/07/07 12:32:46;;;;;;;;;;;21.60;73.70;;;;;;5013080;28;882;-71
2022/07/07 12:35:30;;;;;;;;;;;21.60;73.70;;;;;;5012934;28;1215;-71
2022/07/07 12:37:56;;;;;;;;;;;21.60;73.70;;;;;;5012730;28;1010;-71
2022/07/07 12:40:22;;;;;;;;;;;21.60;73.70;;;;;;5012108;28;824;-71
2022/07/07 12:42:48;;;;;;;;;;;21.60;73.70;;;;;;5011875;28;842;-71
2022/07/07 12:45:14;;;;;;;;;;;21.60;73.70;;;;;;5013022;28;1210;-71
2022/07/07 12:47:46;;;;;;;;;;;21.60;73.70;;;;;;5011959;28;1906;-71
2022/07/07 12:50:12;;;;;;;;;;;21.60;73.70;;;;;;5013408;28;835;-70
2022/07/07 12:52:37;;;;;;;;;;;21.60;73.70;;;;;;5004775;28;1260;-70
2022/07/07 12:55:09;;;;;;;;;;;21.60;73.70;;;;;;5002274;28;1351;-69
2022/07/07 12:57:35;;;;;;;;;;;21.60;73.70;;;;;;5001473;28;1236;-70
2022/07/07 13:00:00;;;;;;;;;;;21.60;73.70;;;;;;5001233;28;1385;-68
2022/07/07 13:02:26;;;;;;;;;;;21.60;73.70;;;;;;5003705;28;1260;-70
2022/07/07 13:04:51;;;;;;;;;;;21.60;73.70;;;;;;5000328;28;1363;-69
2022/07/07 13:07:17;;;;;;;;;;;21.60;73.70;;;;;;5002882;28;1224;-68
2022/07/07 13:09:42;;;;;;;;;;;21.60;73.70;;;;;;5003228;28;1977;-69
2022/07/07 13:12:11;;;;;;;;;;;21.60;73.70;;;;;;5001838;28;1334;-70
2022/07/07 13:14:36;;;;;;;;;;;21.60;73.70;;;;;;5000876;28;1328;-70
2022/07/07 13:17:02;;;;;;;;;;;21.60;73.70;;;;;;5014204;28;1148;-70
2022/07/07 13:19:28;;;;;;;;;;;21.60;73.70;;;;;;5016462;28;1170;-71
2022/07/07 13:21:53;;;;;;;;;;;21.60;73.70;;;;;;5016926;28;832;-71
2022/07/07 13:24:19;;;;;;;;;;;21.60;73.70;;;;;;5016195;28;935;-71
2022/07/07 13:26:44;;;;;;;;;;;21.60;73.70;;;;;;5016421;28;1048;-71
2022/07/07 13:29:10;;;;;;;;;;;21.50;73.70;;;;;;5016297;28;1894;-71
2022/07/07 13:31:38;;;;;;;;;;;21.60;73.70;;;;;;5015228;28;998;-72
2022/07/07 13:34:03;;;;;;;;;;;21.60;73.70;;;;;;5015169;28;868;-71
2022/07/07 13:36:29;;;;;;;;;;;21.60;73.80;;;;;;5015861;28;1208;-71
2022/07/07 13:38:54;;;;;;;;;;;21.60;73.70;;;;;;5016463;28;854;-71
2022/07/07 13:41:20;;;;;;;;;;;21.60;73.70;;;;;;5016632;28;930;-72
2022/07/07 13:43:46;;;;;;;;;;;21.60;73.70;;;;;;5016011;28;844;-71
2022/07/07 13:46:12;;;;;;;;;;;21.60;73.70;;;;;;5016967;28;1190;-70
2022/07/07 13:48:37;;;;;;;;;;;21.60;73.70;;;;;;5016130;28;1953;-71
2022/07/07 13:51:03;;;;;;;;;;;21.60;73.70;;;;;;5015647;28;1021;-71
2022/07/07 13:53:29;;;;;;;;;;;21.60;73.70;;;;;;5014626;28;1358;-71
2022/07/07 13:55:55;;;;;;;;;;;21.60;73.70;;;;;;5015489;28;1185;-72
2022/07/07 13:58:20;;;;;;;;;;;21.60;73.70;;;;;;5015900;28;822;-71
2022/07/07 14:00:46;;;;;;;;;;;21.60;73.70;;;;;;5015740;28;954;-71
2022/07/07 14:03:11;;;;;;;;;;;21.60;73.70;;;;;;5014774;28;922;-71
2022/07/07 14:05:36;;;;;;;;;;;21.60;73.70;;;;;;5015013;28;1199;-71
2022/07/07 14:08:02;;;;;;;;;;;21.60;73.70;;;;;;5015505;28;1906;-71
2022/07/07 14:10:28;;;;;;;;;;;21.60;73.70;;;;;;5015677;28;780;-71
2022/07/07 14:12:53;;;;;;;;;;;21.60;73.70;;;;;;5015525;28;862;-71
2022/07/07 14:15:19;;;;;;;;;;;21.60;73.70;;;;;;5015221;28;1225;-71
2022/07/07 14:17:45;;;;;;;;;;;21.60;73.70;;;;;;5030667;28;1425;-72
2022/07/07 14:20:10;;;;;;;;;;;21.60;73.70;;;;;;5016014;28;1119;-71
2022/07/07 14:22:36;;;;;;;;;;;21.60;73.70;;;;;;5013976;28;828;-71
2022/07/07 14:25:02;;;;;;;;;;;21.60;74.50;;;;;;5014584;28;1302;-71
2022/07/07 14:27:29;;;;;;;;;;;21.60;73.70;;;;;;5015427;28;998;-71
2022/07/07 14:29:55;;;;;;;;;;;21.60;73.70;;;;;;5015092;28;843;-71
2022/07/07 14:32:21;;;;;;;;;;;21.60;73.70;;;;;;5014263;28;2230;-71